createdAt,value
2019-05-19T00:00:00.745Z,1.00
2019-05-19T00:02:32.666Z,1.00
2019-05-19T00:05:03.767Z,1.00
2019-05-19T00:07:36.301Z,1.00
2019-05-19T00:10:26.107Z,1.00
2019-05-19T00:12:56.621Z,1.00
2019-05-19T00:15:27.223Z,1.00
2019-05-19T00:17:58.045Z,1.00
2019-05-19T00:20:28.609Z,1.00
2019-05-19T00:22:59.151Z,1.00
2019-05-19T00:25:29.664Z,1.00
2019-05-19T00:28:00.255Z,1.00
2019-05-19T00:30:31.096Z,3.30
2019-05-19T00:33:01.634Z,1.00
2019-05-19T00:35:32.148Z,1.00
2019-05-19T00:38:02.679Z,6.20
2019-05-19T00:40:33.390Z,1.20
2019-05-19T00:43:03.978Z,6.40
2019-05-19T00:45:34.893Z,1.50
2019-05-19T00:48:05.508Z,10.50
2019-05-19T00:50:36.319Z,4.30
2019-05-19T00:53:06.848Z,3.00
2019-05-19T00:55:37.536Z,1.00
2019-05-19T00:58:09.640Z,1.00
2019-05-19T01:00:40.171Z,1.00
2019-05-19T01:03:10.605Z,1.00
2019-05-19T01:05:42.015Z,1.00
2019-05-19T01:08:12.474Z,1.20
2019-05-19T01:10:44.267Z,1.00
2019-05-19T01:13:14.665Z,1.00
2019-05-19T01:15:45.176Z,1.00
2019-05-19T01:18:15.610Z,1.00
2019-05-19T01:20:46.490Z,1.00
2019-05-19T01:23:17.239Z,1.00
2019-05-19T01:25:47.655Z,1.00
2019-05-19T01:28:18.141Z,1.00
2019-05-19T01:30:48.628Z,1.00
2019-05-19T01:33:19.146Z,1.00
2019-05-19T01:35:50.047Z,1.00
2019-05-19T01:38:20.898Z,1.00
2019-05-19T01:40:51.281Z,1.00
2019-05-19T01:43:21.704Z,1.00
2019-05-19T01:45:52.130Z,1.00
2019-05-19T01:48:22.688Z,1.00
2019-05-19T01:50:53.171Z,1.00
2019-05-19T01:53:23.603Z,1.00
2019-05-19T01:55:54.133Z,1.00
2019-05-19T01:58:24.987Z,1.00
2019-05-19T02:00:55.500Z,1.00
2019-05-19T02:03:25.986Z,1.00
2019-05-19T02:05:57.148Z,1.00
2019-05-19T02:08:28.018Z,1.40
2019-05-19T02:10:58.491Z,6.20
2019-05-19T02:13:28.905Z,12.30
2019-05-19T02:15:59.330Z,8.30
2019-05-19T02:18:30.275Z,10.50
2019-05-19T02:21:01.061Z,12.50
2019-05-19T02:23:32.100Z,16.50
2019-05-19T02:26:02.600Z,16.90
2019-05-19T02:28:33.001Z,14.00
2019-05-19T02:31:03.590Z,11.50
2019-05-19T02:33:35.845Z,11.90
2019-05-19T02:36:06.291Z,14.10
2019-05-19T02:38:37.194Z,15.00
2019-05-19T02:41:10.048Z,7.30
2019-05-19T02:43:41.366Z,5.30
2019-05-19T02:46:12.189Z,10.30
2019-05-19T02:48:43.718Z,13.80
2019-05-19T02:51:16.511Z,10.20
2019-05-19T02:53:48.833Z,4.10
2019-05-19T02:56:20.514Z,1.00
2019-05-19T02:58:52.667Z,1.00
2019-05-19T03:01:23.164Z,1.00
2019-05-19T03:03:54.058Z,5.00
2019-05-19T03:06:24.690Z,7.70
2019-05-19T03:08:55.179Z,14.00
2019-05-19T03:11:26.002Z,14.80
2019-05-19T03:16:45.733Z,10.00
2019-05-19T03:19:16.342Z,19.20
2019-05-19T03:21:46.883Z,24.80
2019-05-19T03:24:18.011Z,26.90
2019-05-19T03:26:49.781Z,25.70
2019-05-19T03:29:24.570Z,26.30
2019-05-19T03:32:01.321Z,24.70
2019-05-19T03:34:33.249Z,23.60
2019-05-19T03:37:03.797Z,25.20
2019-05-19T03:39:34.257Z,24.90
2019-05-19T03:42:05.318Z,37.40
2019-05-19T03:44:35.833Z,36.70
2019-05-19T03:47:06.410Z,39.60
2019-05-19T03:49:36.900Z,15.40
2019-05-19T03:52:07.332Z,18.60
2019-05-19T03:54:37.801Z,25.10
2019-05-19T03:57:08.639Z,21.50
2019-05-19T03:59:39.180Z,16.90
2019-05-19T04:02:09.670Z,6.80
2019-05-19T04:04:40.392Z,14.00
2019-05-19T04:07:10.851Z,3.00
2019-05-19T04:09:41.302Z,6.50
2019-05-19T04:12:11.723Z,7.90
2019-05-19T04:14:42.422Z,1.00
2019-05-19T04:17:12.932Z,1.00
2019-05-19T04:19:43.621Z,1.00
2019-05-19T04:22:14.149Z,1.00
2019-05-19T04:24:45.269Z,1.00
2019-05-19T04:27:18.005Z,1.00
2019-05-19T04:29:48.451Z,1.00
2019-05-19T04:32:19.203Z,1.00
2019-05-19T04:34:49.390Z,1.00
2019-05-19T04:37:19.632Z,1.00
2019-05-19T04:39:49.786Z,1.00
2019-05-19T04:42:20.632Z,1.00
2019-05-19T04:44:51.377Z,1.00
2019-05-19T04:47:21.597Z,1.00
2019-05-19T04:49:51.905Z,1.00
2019-05-19T04:52:22.149Z,1.00
2019-05-19T04:54:52.610Z,1.00
2019-05-19T04:57:22.773Z,1.00
2019-05-19T04:59:53.010Z,1.00
2019-05-19T05:02:23.310Z,1.00
2019-05-19T05:04:53.856Z,99.90
2019-05-19T05:07:24.155Z,99.90
2019-05-19T05:09:54.580Z,99.90
2019-05-19T05:12:25.038Z,99.90
2019-05-19T05:14:55.270Z,1.00
2019-05-19T05:17:25.413Z,99.90
2019-05-19T05:19:55.561Z,1.00
2019-05-19T05:22:25.992Z,99.90
2019-05-19T05:24:56.157Z,99.90
2019-05-19T05:27:26.329Z,1.00
2019-05-19T05:29:56.465Z,1.00
2019-05-19T05:32:26.625Z,1.00
2019-05-19T05:34:56.837Z,99.90
2019-05-19T05:37:27.236Z,1.00
2019-05-19T05:39:57.376Z,99.90
2019-05-19T05:42:27.623Z,99.90
2019-05-19T05:44:57.879Z,1.00
2019-05-19T05:47:28.076Z,1.00
2019-05-19T05:49:58.662Z,99.90
2019-05-19T05:52:38.008Z,1.00
2019-05-19T05:55:01.785Z,1.00
2019-05-19T05:57:31.962Z,1.00
2019-05-19T06:00:02.367Z,1.00
2019-05-19T06:02:33.116Z,99.90
2019-05-19T06:05:03.424Z,99.90
2019-05-19T06:07:33.954Z,1.00
2019-05-19T06:10:06.496Z,1.00
2019-05-19T06:12:36.645Z,1.00
2019-05-19T06:15:08.123Z,99.90
2019-05-19T06:17:39.906Z,99.90
2019-05-19T06:20:16.151Z,99.90
2019-05-19T06:22:55.799Z,99.90
2019-05-19T06:25:18.306Z,99.30
2019-05-19T06:27:48.579Z,67.80
2019-05-19T06:30:18.935Z,35.90
2019-05-19T06:32:51.609Z,16.00
2019-05-19T06:35:22.916Z,1.00
2019-05-19T06:37:53.075Z,1.00
2019-05-19T06:40:23.418Z,1.00
2019-05-19T06:42:53.642Z,1.00
2019-05-19T06:45:24.256Z,1.00
2019-05-19T06:47:54.436Z,1.00
2019-05-19T06:50:24.715Z,1.00
2019-05-19T06:53:10.933Z,1.00
2019-05-19T06:55:26.739Z,1.00
2019-05-19T06:57:58.058Z,1.00
2019-05-19T07:00:28.221Z,1.00
2019-05-19T07:02:58.375Z,1.00
2019-05-19T07:05:28.608Z,1.00
2019-05-19T07:07:59.127Z,1.00
2019-05-19T07:10:29.346Z,1.00
2019-05-19T07:12:59.587Z,1.00
2019-05-19T07:15:29.784Z,1.00
2019-05-19T07:17:59.973Z,1.00
2019-05-19T07:20:31.832Z,1.00
2019-05-19T07:23:02.397Z,1.00
2019-05-19T07:25:32.663Z,1.00
2019-05-19T07:28:03.390Z,1.00
2019-05-19T07:30:34.821Z,1.00
2019-05-19T07:33:05.389Z,1.00
2019-05-19T07:35:35.638Z,1.00
2019-05-19T07:38:07.489Z,1.00
2019-05-19T07:40:37.964Z,1.00
2019-05-19T07:43:08.121Z,1.00
2019-05-19T07:45:38.374Z,1.00
2019-05-19T07:48:08.596Z,1.00
2019-05-19T07:50:40.200Z,1.00
2019-05-19T07:53:10.628Z,1.00
2019-05-19T07:55:40.916Z,1.00
2019-05-19T07:58:11.432Z,1.00
2019-05-19T08:00:41.628Z,1.00
2019-05-19T08:03:11.881Z,1.00
2019-05-19T08:05:42.050Z,1.00
2019-05-19T08:08:12.268Z,1.00
2019-05-19T08:10:43.111Z,1.00
2019-05-19T08:13:13.521Z,1.00
2019-05-19T08:15:43.777Z,1.00
2019-05-19T08:18:13.919Z,1.00
2019-05-19T08:20:44.119Z,1.00
2019-05-19T08:23:14.280Z,1.00
2019-05-19T08:25:44.994Z,1.00
2019-05-19T08:28:15.174Z,1.00
2019-05-19T08:30:45.578Z,1.00
2019-05-19T08:33:16.057Z,1.00
2019-05-19T08:35:46.842Z,1.00
2019-05-19T08:38:17.446Z,1.00
2019-05-19T08:40:47.763Z,1.00
2019-05-19T08:43:18.238Z,1.00
2019-05-19T08:45:48.694Z,1.00
2019-05-19T08:48:19.124Z,1.00
2019-05-19T08:50:49.534Z,1.00
2019-05-19T08:53:19.734Z,1.00
2019-05-19T08:55:51.098Z,1.00
2019-05-19T08:58:22.772Z,1.00
2019-05-19T09:00:52.976Z,1.00
2019-05-19T09:03:23.145Z,1.00
2019-05-19T09:05:53.364Z,1.00
2019-05-19T09:08:23.521Z,1.00
2019-05-19T09:10:53.754Z,1.00
2019-05-19T09:13:23.869Z,1.00
2019-05-19T09:15:53.969Z,1.00
2019-05-19T09:18:24.112Z,1.00
2019-05-19T09:20:54.517Z,1.00
2019-05-19T09:26:07.016Z,1.00
2019-05-19T09:28:37.149Z,1.00
2019-05-19T09:31:07.439Z,1.00
2019-05-19T09:33:37.633Z,1.00
2019-05-19T09:36:07.809Z,1.00
2019-05-19T09:38:37.988Z,1.00
2019-05-19T09:41:08.158Z,1.00
2019-05-19T09:43:40.025Z,1.00
2019-05-19T09:46:10.250Z,1.00
2019-05-19T09:48:42.211Z,1.00
2019-05-19T09:51:12.332Z,1.00
2019-05-19T09:53:42.634Z,1.00
2019-05-19T09:56:14.122Z,1.00
2019-05-19T09:58:44.294Z,1.00
2019-05-19T10:01:14.434Z,1.00
2019-05-19T10:03:44.879Z,1.00
2019-05-19T10:06:15.084Z,1.00
2019-05-19T10:09:03.920Z,1.00
2019-05-19T10:11:56.977Z,1.00
2019-05-19T10:14:27.170Z,1.00
2019-05-19T10:16:57.712Z,1.00
2019-05-19T10:19:27.960Z,1.00
2019-05-19T10:21:58.175Z,1.00
2019-05-19T10:24:28.325Z,1.00
2019-05-19T10:26:58.570Z,1.00
2019-05-19T10:29:28.755Z,1.00
2019-05-19T10:31:59.264Z,1.00
2019-05-19T10:34:29.500Z,1.00
2019-05-19T10:37:01.059Z,1.00
2019-05-19T10:39:31.268Z,1.00
2019-05-19T10:42:02.711Z,1.00
2019-05-19T10:44:33.227Z,1.00
2019-05-19T10:47:03.449Z,1.00
2019-05-19T10:49:33.709Z,1.00
2019-05-19T10:52:04.303Z,1.00
2019-05-19T10:54:34.528Z,1.00
2019-05-19T10:57:04.722Z,1.00
2019-05-19T10:59:34.841Z,1.00
2019-05-19T11:02:04.963Z,1.00
2019-05-19T11:04:35.197Z,1.00
2019-05-19T11:07:05.501Z,1.00
2019-05-19T11:09:36.720Z,1.00
2019-05-19T11:12:06.909Z,1.00
2019-05-19T11:14:37.465Z,1.00
2019-05-19T11:17:07.729Z,1.00
2019-05-19T11:19:38.206Z,1.00
2019-05-19T11:22:08.404Z,1.00
2019-05-19T11:24:38.545Z,1.00
2019-05-19T11:27:10.134Z,1.00
2019-05-19T11:29:40.494Z,1.00
2019-05-19T11:32:11.339Z,1.00
2019-05-19T11:34:41.464Z,1.00
2019-05-19T11:37:11.608Z,1.00
2019-05-19T11:39:41.715Z,1.00
2019-05-19T11:42:11.917Z,1.00
2019-05-19T11:44:43.056Z,1.00
2019-05-19T11:47:13.630Z,1.00
2019-05-19T11:49:43.781Z,1.00
2019-05-19T11:52:15.520Z,1.00
2019-05-19T11:54:45.608Z,1.00
2019-05-19T11:57:15.741Z,1.00
2019-05-19T11:59:45.869Z,1.00
2019-05-19T12:02:16.005Z,1.00
2019-05-19T12:04:46.123Z,1.00
2019-05-19T12:07:16.257Z,1.00
2019-05-19T12:09:46.583Z,1.00
2019-05-19T12:12:17.046Z,1.00
2019-05-19T12:14:47.166Z,1.00
2019-05-19T12:17:18.725Z,1.00
2019-05-19T12:19:48.979Z,1.00
2019-05-19T12:22:19.147Z,1.00
2019-05-19T12:24:50.077Z,1.00
2019-05-19T12:27:20.358Z,1.00
2019-05-19T12:29:50.512Z,1.00
2019-05-19T12:32:20.730Z,1.00
2019-05-19T12:37:24.901Z,1.00
2019-05-19T12:39:55.656Z,1.00
2019-05-19T12:42:25.816Z,1.00
2019-05-19T12:44:56.245Z,1.00
2019-05-19T12:47:26.406Z,1.00
2019-05-19T12:49:56.544Z,1.00
2019-05-19T12:52:27.953Z,1.00
2019-05-19T12:54:58.135Z,1.00
2019-05-19T12:57:28.437Z,1.00
2019-05-19T12:59:58.605Z,1.00
2019-05-19T13:02:28.918Z,1.00
2019-05-19T13:05:04.937Z,1.00
2019-05-19T13:07:31.843Z,1.00
2019-05-19T13:10:01.960Z,1.00
2019-05-19T13:12:32.188Z,1.00
2019-05-19T13:15:02.611Z,1.00
2019-05-19T13:17:32.846Z,1.00
2019-05-19T13:20:03.465Z,1.00
2019-05-19T13:22:34.201Z,1.00
2019-05-19T13:25:04.905Z,1.00
2019-05-19T13:27:36.683Z,1.00
2019-05-19T13:30:07.289Z,1.00
2019-05-19T13:32:37.438Z,1.00
2019-05-19T13:35:09.233Z,1.00
2019-05-19T13:37:39.677Z,1.00
2019-05-19T13:40:11.038Z,1.00
2019-05-19T13:42:41.185Z,1.00
2019-05-19T13:45:12.004Z,1.00
2019-05-19T13:47:42.231Z,1.00
2019-05-19T13:50:12.735Z,1.00
2019-05-19T13:52:43.296Z,1.00
2019-05-19T13:55:13.692Z,1.00
2019-05-19T13:57:44.212Z,1.00
2019-05-19T14:00:14.693Z,1.00
2019-05-19T14:02:46.660Z,1.00
2019-05-19T14:05:16.921Z,1.00
2019-05-19T14:07:47.105Z,1.00
2019-05-19T14:10:17.486Z,1.00
2019-05-19T14:12:47.857Z,1.00
2019-05-19T14:15:18.114Z,1.00
2019-05-19T14:17:48.335Z,1.00
2019-05-19T14:20:18.969Z,1.00
2019-05-19T14:22:49.152Z,1.00
2019-05-19T14:25:19.651Z,1.00
2019-05-19T14:27:50.120Z,1.00
2019-05-19T14:30:20.443Z,1.00
2019-05-19T14:32:50.639Z,1.00
2019-05-19T14:35:20.856Z,1.00
2019-05-19T14:37:51.016Z,1.00
2019-05-19T14:40:21.282Z,1.00
2019-05-19T14:45:29.074Z,1.00
2019-05-19T14:47:59.268Z,85.80
2019-05-19T14:50:29.668Z,1.00
2019-05-19T14:52:59.852Z,99.90
2019-05-19T14:55:29.996Z,99.90
2019-05-19T14:58:00.767Z,99.90
2019-05-19T15:00:31.289Z,99.90
2019-05-19T15:03:01.464Z,99.90
2019-05-19T15:05:31.748Z,99.90
2019-05-19T15:08:01.946Z,99.90
2019-05-19T15:10:32.101Z,1.00
2019-05-19T15:13:02.874Z,99.90
2019-05-19T15:15:33.054Z,1.00
2019-05-19T15:18:03.200Z,1.00
2019-05-19T15:20:33.429Z,1.00
2019-05-19T15:23:03.517Z,1.00
2019-05-19T15:25:33.682Z,1.00
2019-05-19T15:28:05.323Z,1.00
2019-05-19T15:30:35.876Z,1.00
2019-05-19T15:33:05.995Z,1.00
2019-05-19T15:35:36.158Z,1.00
2019-05-19T15:38:06.414Z,1.00
2019-05-19T15:40:36.797Z,1.00
2019-05-19T15:43:07.029Z,1.00
2019-05-19T15:45:37.222Z,1.00
2019-05-19T15:48:07.373Z,1.00
2019-05-19T15:50:37.535Z,1.00
2019-05-19T15:53:07.657Z,1.00
2019-05-19T15:55:37.829Z,1.00
2019-05-19T15:58:16.090Z,1.00
2019-05-19T16:00:43.051Z,99.90
2019-05-19T16:03:13.245Z,99.90
2019-05-19T16:05:43.464Z,1.00
2019-05-19T16:08:13.637Z,99.90
2019-05-19T16:10:43.888Z,99.90
2019-05-19T16:13:14.423Z,1.00
2019-05-19T16:15:44.600Z,1.00
2019-05-19T16:18:16.869Z,77.70
2019-05-19T16:20:47.071Z,99.90
2019-05-19T16:23:17.207Z,1.00
2019-05-19T16:25:47.444Z,1.00
2019-05-19T16:28:29.943Z,1.00
2019-05-19T16:30:49.426Z,1.00
2019-05-19T16:33:19.601Z,99.90
2019-05-19T16:35:49.758Z,99.90
2019-05-19T16:38:19.901Z,1.00
2019-05-19T16:40:51.365Z,1.00
2019-05-19T16:43:21.628Z,1.00
2019-05-19T16:45:51.773Z,95.60
2019-05-19T16:48:23.470Z,46.90
2019-05-19T16:50:53.918Z,96.20
2019-05-19T16:53:24.492Z,99.90
2019-05-19T16:55:54.688Z,99.90
2019-05-19T16:58:24.909Z,99.90
2019-05-19T17:00:55.081Z,99.90
2019-05-19T17:03:25.360Z,99.90
2019-05-19T17:05:57.917Z,99.90
2019-05-19T17:08:27.866Z,99.90
2019-05-19T17:10:59.450Z,99.90
2019-05-19T17:13:29.752Z,1.00
2019-05-19T17:15:59.937Z,1.00
2019-05-19T17:18:30.091Z,1.00
2019-05-19T17:21:00.253Z,1.00
2019-05-19T17:23:30.468Z,99.90
2019-05-19T17:26:01.337Z,99.90
2019-05-19T17:28:31.815Z,99.90
2019-05-19T17:31:02.029Z,99.90
2019-05-19T17:33:32.287Z,99.90
2019-05-19T17:36:02.556Z,99.90
2019-05-19T17:38:34.059Z,99.90
2019-05-19T17:41:04.278Z,1.00
2019-05-19T17:43:34.416Z,1.00
2019-05-19T17:46:05.047Z,1.00
2019-05-19T17:48:37.132Z,99.90
2019-05-19T17:51:07.296Z,99.90
2019-05-19T17:53:37.605Z,99.90
2019-05-19T17:56:07.784Z,1.00
2019-05-19T17:58:38.220Z,99.90
2019-05-19T18:01:08.759Z,1.00
2019-05-19T18:03:39.097Z,99.90
2019-05-19T18:06:15.241Z,1.00
2019-05-19T18:08:45.678Z,12.00
2019-05-19T18:11:17.118Z,31.30
2019-05-19T18:13:47.343Z,26.80
2019-05-19T18:16:25.170Z,1.00
2019-05-19T18:18:56.540Z,99.90
2019-05-19T18:21:26.781Z,1.00
2019-05-19T18:23:56.888Z,1.00
2019-05-19T18:26:28.435Z,99.90
2019-05-19T18:28:58.752Z,99.90
2019-05-19T18:31:31.140Z,99.90
2019-05-19T18:34:00.982Z,1.00
2019-05-19T18:36:31.260Z,99.90
2019-05-19T18:39:02.100Z,99.90
2019-05-19T18:41:32.709Z,8.30
2019-05-19T18:44:03.352Z,99.90
2019-05-19T18:46:33.769Z,1.00
2019-05-19T18:49:04.061Z,99.90
2019-05-19T18:51:34.248Z,1.00
2019-05-19T18:54:04.871Z,1.00
2019-05-19T18:56:37.037Z,1.00
2019-05-19T18:59:07.254Z,1.00
2019-05-19T19:01:37.574Z,1.00
2019-05-19T19:04:09.436Z,1.00
2019-05-19T19:06:40.053Z,1.00
2019-05-19T19:09:10.934Z,1.00
2019-05-19T19:11:41.722Z,99.90
2019-05-19T19:14:12.011Z,99.90
2019-05-19T19:16:42.270Z,14.10
2019-05-19T19:19:12.401Z,1.00
2019-05-19T19:21:42.521Z,1.00
2019-05-19T19:24:12.722Z,1.00
2019-05-19T19:26:43.553Z,99.90
2019-05-19T19:29:13.991Z,99.90
2019-05-19T19:31:48.704Z,1.00
2019-05-19T19:34:16.430Z,99.90
2019-05-19T19:36:47.031Z,1.00
2019-05-19T19:39:17.294Z,1.00
2019-05-19T19:41:47.759Z,99.90
2019-05-19T19:44:17.897Z,99.90
2019-05-19T19:46:48.111Z,99.90
2019-05-19T19:49:18.298Z,99.90
2019-05-19T19:51:48.384Z,99.90
2019-05-19T19:54:18.641Z,1.00
2019-05-19T19:56:48.889Z,99.90
2019-05-19T19:59:19.073Z,99.90
2019-05-19T20:01:49.335Z,99.90
2019-05-19T20:04:19.555Z,99.90
2019-05-19T20:06:49.734Z,1.00
2019-05-19T20:09:21.417Z,1.00
2019-05-19T20:11:51.682Z,99.90
2019-05-19T20:14:21.864Z,99.90
2019-05-19T20:16:52.158Z,33.20
2019-05-19T20:19:24.079Z,1.00
2019-05-19T20:21:59.322Z,1.00
2019-05-19T20:24:31.140Z,1.00
2019-05-19T20:27:01.316Z,1.00
2019-05-19T20:29:32.220Z,1.00
2019-05-19T20:32:02.457Z,1.00
2019-05-19T20:34:32.565Z,1.00
2019-05-19T20:37:02.696Z,99.90
2019-05-19T20:39:32.856Z,1.00
2019-05-19T20:42:04.002Z,1.00
2019-05-19T20:44:34.246Z,31.20
2019-05-19T20:47:04.462Z,41.60
2019-05-19T20:49:34.689Z,86.50
2019-05-19T20:52:04.980Z,94.80
2019-05-19T20:54:35.248Z,98.70
2019-05-19T20:57:05.534Z,99.90
2019-05-19T21:02:05.761Z,99.90
2019-05-19T21:04:36.117Z,99.90
2019-05-19T21:07:07.910Z,99.90
2019-05-19T21:09:38.603Z,99.90
2019-05-19T21:12:11.377Z,99.90
2019-05-19T21:14:41.778Z,99.90
2019-05-19T21:17:12.170Z,99.90
2019-05-19T21:19:42.583Z,99.90
2019-05-19T21:22:13.202Z,99.90
2019-05-19T21:24:43.856Z,99.90
2019-05-19T21:27:15.031Z,96.80
2019-05-19T21:29:45.239Z,97.70
2019-05-19T21:32:15.522Z,99.90
2019-05-19T21:34:45.718Z,99.90
2019-05-19T21:37:19.103Z,99.90
2019-05-19T21:39:49.298Z,99.90
2019-05-19T21:42:19.552Z,99.90
2019-05-19T21:44:49.895Z,99.90
2019-05-19T21:47:20.405Z,99.90
2019-05-19T21:49:51.461Z,99.90
2019-05-19T21:52:21.618Z,99.90
2019-05-19T21:54:58.427Z,99.90
2019-05-19T21:57:28.729Z,99.90
2019-05-19T21:59:58.930Z,99.90
2019-05-19T22:02:29.230Z,99.90
2019-05-19T22:05:01.609Z,99.90
2019-05-19T22:07:40.529Z,99.90
2019-05-19T22:10:11.575Z,99.90
2019-05-19T22:12:41.859Z,99.90
2019-05-19T22:15:12.342Z,99.60
2019-05-19T22:17:42.549Z,97.70
2019-05-19T22:20:14.346Z,96.70
2019-05-19T22:22:44.851Z,99.90
2019-05-19T22:25:15.025Z,99.90
2019-05-19T22:27:45.323Z,99.90
2019-05-19T22:30:15.950Z,99.90
2019-05-19T22:32:46.514Z,99.90
2019-05-19T22:35:16.760Z,99.90
2019-05-19T22:37:47.099Z,99.90
2019-05-19T22:40:17.570Z,99.90
2019-05-19T22:42:47.765Z,99.90
2019-05-19T22:45:18.306Z,99.90
2019-05-19T22:47:48.582Z,99.90
2019-05-19T22:50:19.450Z,99.90
2019-05-19T22:52:49.552Z,99.90
2019-05-19T22:55:19.969Z,99.90
2019-05-19T22:57:50.550Z,99.90
2019-05-19T23:00:21.593Z,99.90
2019-05-19T23:02:52.077Z,99.90
2019-05-19T23:05:22.233Z,99.90
2019-05-19T23:07:52.708Z,99.90
2019-05-19T23:10:23.233Z,99.90
2019-05-19T23:12:53.404Z,99.90
2019-05-19T23:15:23.753Z,99.90
2019-05-19T23:17:53.959Z,99.90
2019-05-19T23:20:24.093Z,99.90
2019-05-19T23:22:54.329Z,99.90
2019-05-19T23:25:24.524Z,99.90
2019-05-19T23:27:56.121Z,99.90
2019-05-19T23:30:26.240Z,99.90
2019-05-19T23:32:56.870Z,99.90
2019-05-19T23:35:27.016Z,99.90
2019-05-19T23:37:57.218Z,99.90
2019-05-19T23:40:27.391Z,99.90
2019-05-19T23:42:58.925Z,99.90
2019-05-19T23:45:29.084Z,99.90
2019-05-19T23:47:59.300Z,99.90
2019-05-19T23:50:29.471Z,99.90
2019-05-19T23:52:59.876Z,99.90
2019-05-19T23:55:30.032Z,99.90
2019-05-19T23:58:00.244Z,99.90
